createdAt,value
2018-06-10T00:01:44.764Z,98.38
2018-06-10T00:04:20.704Z,98.31
2018-06-10T00:06:56.316Z,98.28
2018-06-10T00:09:31.886Z,98.31
2018-06-10T00:12:07.616Z,98.68
2018-06-10T00:14:43.106Z,98.52
2018-06-10T00:17:18.535Z,98.26
2018-06-10T00:19:55.254Z,98.99
2018-06-10T00:22:32.255Z,98.33
2018-06-10T00:25:09.500Z,99.09
2018-06-10T00:27:46.158Z,99.65
2018-06-10T00:30:23.711Z,99.12
2018-06-10T00:33:00.824Z,99.42
2018-06-10T00:35:37.418Z,100.00
2018-06-10T00:38:13.878Z,99.47
2018-06-10T00:40:50.160Z,99.68
2018-06-10T00:43:25.658Z,99.63
2018-06-10T00:46:01.168Z,99.36
2018-06-10T00:48:36.632Z,99.43
2018-06-10T00:51:12.058Z,99.19
2018-06-10T00:53:47.573Z,98.92
2018-06-10T00:56:57.751Z,99.08
2018-06-10T00:59:34.315Z,99.40
2018-06-10T01:02:10.008Z,99.79
2018-06-10T01:04:45.549Z,100.00
2018-06-10T01:07:21.087Z,99.71
2018-06-10T01:09:56.537Z,99.65
2018-06-10T01:12:32.131Z,99.43
2018-06-10T01:15:08.451Z,99.48
2018-06-10T01:17:44.083Z,99.86
2018-06-10T01:20:19.469Z,99.68
2018-06-10T01:22:55.128Z,99.93
2018-06-10T01:25:30.698Z,99.73
2018-06-10T01:28:06.183Z,99.45
2018-06-10T01:30:41.524Z,99.82
2018-06-10T01:33:17.047Z,99.46
2018-06-10T01:35:52.459Z,99.30
2018-06-10T01:38:28.033Z,99.32
2018-06-10T01:41:03.669Z,100.00
2018-06-10T01:43:39.344Z,100.00
2018-06-10T01:46:14.959Z,100.00
2018-06-10T01:48:50.424Z,99.43
2018-06-10T01:51:25.976Z,100.00
2018-06-10T01:54:01.403Z,100.00
2018-06-10T01:56:36.840Z,100.00
2018-06-10T01:59:12.163Z,99.17
2018-06-10T02:01:49.198Z,99.79
2018-06-10T02:04:26.698Z,100.00
2018-06-10T02:07:02.674Z,100.00
2018-06-10T02:09:38.264Z,99.87
2018-06-10T02:12:13.672Z,100.00
2018-06-10T02:14:49.189Z,100.00
2018-06-10T02:17:24.616Z,100.00
2018-06-10T02:20:00.121Z,100.00
2018-06-10T02:22:35.714Z,100.00
2018-06-10T02:25:11.055Z,100.00
2018-06-10T02:27:46.487Z,100.00
2018-06-10T02:30:22.109Z,100.00
2018-06-10T02:32:57.869Z,100.00
2018-06-10T02:35:33.729Z,100.00
2018-06-10T02:38:09.247Z,100.00
2018-06-10T02:40:44.857Z,100.00
2018-06-10T02:43:20.465Z,100.00
2018-06-10T02:45:55.959Z,100.00
2018-06-10T02:48:31.798Z,100.00
2018-06-10T02:51:07.257Z,100.00
2018-06-10T02:53:42.835Z,100.00
2018-06-10T02:56:18.597Z,100.00
2018-06-10T02:58:54.143Z,100.00
2018-06-10T03:01:29.697Z,100.00
2018-06-10T03:04:05.244Z,100.00
2018-06-10T03:06:40.635Z,100.00
2018-06-10T03:09:16.201Z,99.88
2018-06-10T03:11:51.579Z,100.00
2018-06-10T03:14:27.031Z,100.00
2018-06-10T03:17:02.743Z,100.00
2018-06-10T03:19:38.044Z,100.00
2018-06-10T03:22:13.494Z,99.21
2018-06-10T03:24:48.968Z,99.92
2018-06-10T03:27:24.376Z,99.84
2018-06-10T03:29:59.673Z,99.39
2018-06-10T03:32:35.318Z,100.00
2018-06-10T03:35:10.881Z,99.91
2018-06-10T03:37:46.895Z,98.40
2018-06-10T03:40:22.545Z,98.97
2018-06-10T03:42:58.344Z,97.69
2018-06-10T03:45:34.098Z,98.44
2018-06-10T03:48:09.743Z,98.01
2018-06-10T03:50:45.192Z,98.11
2018-06-10T03:53:20.584Z,99.00
2018-06-10T03:55:56.196Z,97.78
2018-06-10T03:58:32.012Z,98.81
2018-06-10T04:01:07.599Z,97.62
2018-06-10T04:03:43.090Z,98.15
2018-06-10T04:06:18.607Z,97.92
2018-06-10T04:08:53.895Z,97.50
2018-06-10T04:11:29.292Z,97.94
2018-06-10T04:14:04.638Z,96.32
2018-06-10T04:16:40.033Z,94.93
2018-06-10T04:19:15.600Z,95.59
2018-06-10T04:21:51.008Z,95.20
2018-06-10T04:24:26.644Z,95.92
2018-06-10T04:27:02.215Z,95.40
2018-06-10T04:29:37.622Z,96.08
2018-06-10T04:32:13.452Z,95.58
2018-06-10T04:34:49.733Z,95.83
2018-06-10T04:37:25.370Z,95.74
2018-06-10T04:40:00.938Z,95.51
2018-06-10T04:42:36.439Z,94.20
2018-06-10T04:45:12.206Z,94.58
2018-06-10T04:47:47.684Z,94.42
2018-06-10T04:50:23.233Z,93.39
2018-06-10T04:52:58.834Z,91.75
2018-06-10T04:55:34.302Z,92.75
2018-06-10T04:58:09.839Z,89.34
2018-06-10T05:00:45.472Z,88.52
2018-06-10T05:03:21.184Z,85.64
2018-06-10T05:05:56.792Z,85.84
2018-06-10T05:08:32.682Z,85.01
2018-06-10T05:11:08.548Z,84.51
2018-06-10T05:13:43.885Z,83.19
2018-06-10T05:16:19.294Z,85.71
2018-06-10T05:18:54.835Z,85.44
2018-06-10T05:21:30.576Z,85.01
2018-06-10T05:24:06.795Z,84.57
2018-06-10T05:26:42.756Z,84.99
2018-06-10T05:29:23.892Z,86.48
2018-06-10T05:31:59.613Z,86.30
2018-06-10T05:34:35.422Z,87.25
2018-06-10T05:37:11.052Z,86.71
2018-06-10T05:39:46.739Z,86.03
2018-06-10T05:42:22.268Z,87.05
2018-06-10T05:44:58.323Z,85.04
2018-06-10T05:47:33.940Z,84.55
2018-06-10T05:50:09.438Z,84.45
2018-06-10T05:52:45.213Z,84.89
2018-06-10T05:55:20.678Z,85.69
2018-06-10T05:57:56.492Z,84.19
2018-06-10T06:00:32.221Z,83.99
2018-06-10T06:03:07.806Z,82.73
2018-06-10T06:05:43.400Z,81.58
2018-06-10T06:08:18.897Z,80.55
2018-06-10T06:10:54.635Z,78.81
2018-06-10T06:13:29.950Z,79.04
2018-06-10T06:16:05.514Z,78.28
2018-06-10T06:18:41.164Z,76.98
2018-06-10T06:21:16.656Z,77.98
2018-06-10T06:23:52.484Z,77.02
2018-06-10T06:26:28.188Z,74.80
2018-06-10T06:29:03.473Z,73.34
2018-06-10T06:31:39.227Z,73.65
2018-06-10T06:34:15.021Z,71.66
2018-06-10T06:36:50.891Z,70.37
2018-06-10T06:39:26.752Z,70.18
2018-06-10T06:42:02.563Z,68.94
2018-06-10T06:44:38.463Z,69.06
2018-06-10T06:47:14.341Z,69.40
2018-06-10T06:49:51.324Z,69.87
2018-06-10T06:52:29.916Z,70.20
2018-06-10T06:55:07.341Z,68.50
2018-06-10T06:57:44.425Z,67.89
2018-06-10T07:00:20.781Z,68.27
2018-06-10T07:02:58.176Z,65.91
2018-06-10T07:05:34.985Z,63.07
2018-06-10T07:08:10.753Z,61.37
2018-06-10T07:10:46.797Z,61.56
2018-06-10T07:13:22.929Z,61.58
2018-06-10T07:15:59.900Z,60.48
2018-06-10T07:18:36.388Z,58.65
2018-06-10T07:21:13.098Z,56.69
2018-06-10T07:23:49.929Z,54.36
2018-06-10T07:26:26.371Z,55.73
2018-06-10T07:29:05.138Z,54.12
2018-06-10T07:31:42.923Z,54.14
2018-06-10T07:34:19.576Z,52.79
2018-06-10T07:36:55.716Z,51.45
2018-06-10T07:39:34.155Z,53.08
2018-06-10T07:42:11.861Z,53.12
2018-06-10T07:44:50.248Z,53.35
2018-06-10T07:47:27.408Z,49.82
2018-06-10T07:50:08.531Z,50.54
2018-06-10T07:52:44.206Z,48.61
2018-06-10T07:55:19.708Z,48.95
2018-06-10T07:57:55.168Z,48.27
2018-06-10T08:00:30.967Z,49.70
2018-06-10T08:03:06.560Z,50.09
2018-06-10T08:05:42.395Z,52.14
2018-06-10T08:08:18.752Z,51.10
2018-06-10T08:10:54.782Z,49.81
2018-06-10T08:13:30.388Z,45.78
2018-06-10T08:16:05.829Z,46.84
2018-06-10T08:18:41.746Z,46.64
2018-06-10T08:21:17.232Z,43.18
2018-06-10T08:23:56.585Z,40.94
2018-06-10T08:26:32.972Z,44.16
2018-06-10T08:29:08.925Z,41.71
2018-06-10T08:31:47.646Z,40.77
2018-06-10T08:34:23.606Z,39.79
2018-06-10T08:36:59.302Z,39.86
2018-06-10T08:39:34.984Z,42.09
2018-06-10T08:42:10.355Z,38.72
2018-06-10T08:44:45.918Z,38.75
2018-06-10T08:47:21.416Z,38.84
2018-06-10T08:49:57.414Z,39.10
2018-06-10T08:52:33.220Z,36.50
2018-06-10T08:55:11.247Z,35.92
2018-06-10T08:57:47.507Z,36.95
2018-06-10T09:00:23.018Z,37.32
2018-06-10T09:03:06.528Z,39.38
2018-06-10T09:05:42.448Z,38.32
2018-06-10T09:08:18.576Z,35.84
2018-06-10T09:10:56.346Z,34.97
2018-06-10T09:13:38.651Z,38.22
2018-06-10T09:16:22.614Z,37.95
2018-06-10T09:18:59.546Z,35.16
2018-06-10T09:21:36.003Z,35.33
2018-06-10T09:24:12.451Z,36.10
2018-06-10T09:26:48.598Z,36.59
2018-06-10T09:29:25.376Z,37.56
2018-06-10T09:32:08.288Z,36.26
2018-06-10T09:34:44.645Z,33.98
2018-06-10T09:37:20.624Z,36.13
2018-06-10T09:39:56.300Z,38.63
2018-06-10T09:42:32.220Z,41.55
2018-06-10T09:45:11.014Z,40.28
2018-06-10T09:47:55.364Z,38.80
2018-06-10T09:50:36.166Z,34.88
2018-06-10T09:53:11.812Z,33.39
2018-06-10T09:55:47.508Z,32.01
2018-06-10T09:58:25.530Z,32.08
2018-06-10T10:01:01.528Z,33.05
2018-06-10T10:03:37.096Z,31.25
2018-06-10T10:06:13.210Z,32.53
2018-06-10T10:08:50.659Z,33.10
2018-06-10T10:11:27.162Z,32.68
2018-06-10T10:14:02.548Z,31.08
2018-06-10T10:16:38.197Z,30.09
2018-06-10T10:19:13.798Z,31.70
2018-06-10T10:21:51.044Z,32.25
2018-06-10T10:24:26.542Z,33.29
2018-06-10T10:27:02.216Z,33.82
2018-06-10T10:29:37.919Z,33.82
2018-06-10T10:32:13.616Z,30.94
2018-06-10T10:34:49.329Z,28.76
2018-06-10T10:37:25.303Z,28.43
2018-06-10T10:40:01.398Z,28.73
2018-06-10T10:42:39.729Z,30.72
2018-06-10T10:45:19.060Z,31.01
2018-06-10T10:47:54.688Z,28.67
2018-06-10T10:50:30.088Z,29.77
2018-06-10T10:53:05.619Z,32.02
2018-06-10T10:55:41.384Z,31.05
2018-06-10T10:58:17.394Z,31.49
2018-06-10T11:00:53.212Z,29.24
2018-06-10T11:03:29.213Z,30.46
2018-06-10T11:06:05.350Z,31.46
2018-06-10T11:08:41.420Z,28.69
2018-06-10T11:11:17.387Z,26.67
2018-06-10T11:13:53.225Z,29.42
2018-06-10T11:16:30.103Z,30.66
2018-06-10T11:19:09.299Z,28.79
2018-06-10T11:21:44.852Z,28.37
2018-06-10T11:24:20.968Z,28.93
2018-06-10T11:26:57.220Z,27.38
2018-06-10T11:29:32.810Z,25.47
2018-06-10T11:32:09.427Z,25.64
2018-06-10T11:34:47.457Z,24.60
2018-06-10T11:37:25.426Z,26.63
2018-06-10T11:40:02.389Z,25.30
2018-06-10T11:42:39.369Z,26.14
2018-06-10T11:45:18.316Z,24.54
2018-06-10T11:47:57.218Z,27.48
2018-06-10T11:50:34.924Z,27.01
2018-06-10T11:53:12.546Z,25.17
2018-06-10T11:55:51.898Z,28.87
2018-06-10T11:58:29.526Z,35.83
2018-06-10T12:01:06.947Z,30.38
2018-06-10T12:03:44.299Z,27.38
2018-06-10T12:06:19.946Z,30.31
2018-06-10T12:08:55.525Z,31.81
2018-06-10T12:11:31.410Z,37.51
2018-06-10T12:14:07.010Z,36.47
2018-06-10T12:16:43.242Z,30.82
2018-06-10T12:19:19.439Z,30.29
2018-06-10T12:21:55.197Z,29.04
2018-06-10T12:24:31.145Z,27.41
2018-06-10T12:27:06.729Z,28.16
2018-06-10T12:29:42.946Z,26.33
2018-06-10T12:32:18.495Z,26.53
2018-06-10T12:34:54.117Z,28.14
2018-06-10T12:37:29.841Z,27.15
2018-06-10T12:40:06.221Z,25.95
2018-06-10T12:42:42.597Z,25.64
2018-06-10T12:45:18.351Z,24.43
2018-06-10T12:47:54.239Z,23.68
2018-06-10T12:50:32.339Z,24.43
2018-06-10T12:53:08.255Z,22.65
2018-06-10T12:55:43.973Z,20.33
2018-06-10T12:58:19.500Z,19.81
2018-06-10T13:00:55.466Z,20.73
2018-06-10T13:03:31.395Z,23.43
2018-06-10T13:06:07.993Z,25.86
2018-06-10T13:08:44.284Z,23.79
2018-06-10T13:11:20.826Z,21.90
2018-06-10T13:13:59.214Z,18.53
2018-06-10T13:16:35.288Z,19.05
2018-06-10T13:19:12.152Z,22.07
2018-06-10T13:21:48.177Z,23.05
2018-06-10T13:24:23.984Z,26.36
2018-06-10T13:27:00.538Z,24.30
2018-06-10T13:29:36.222Z,23.56
2018-06-10T13:32:12.460Z,27.39
2018-06-10T13:34:48.700Z,33.51
2018-06-10T13:37:25.306Z,29.10
2018-06-10T13:40:02.419Z,24.42
2018-06-10T13:42:41.202Z,21.57
2018-06-10T13:45:20.258Z,19.66
2018-06-10T13:47:56.526Z,19.18
2018-06-10T13:50:33.584Z,29.09
2018-06-10T13:53:10.500Z,32.31
2018-06-10T13:55:48.399Z,26.28
2018-06-10T13:58:28.327Z,25.70
2018-06-10T14:01:05.192Z,22.82
2018-06-10T14:03:43.323Z,30.34
2018-06-10T14:06:21.351Z,32.35
2018-06-10T14:09:02.176Z,30.03
2018-06-10T14:11:40.304Z,25.47
2018-06-10T14:14:21.062Z,22.52
2018-06-10T14:17:02.219Z,22.60
2018-06-10T14:19:39.374Z,21.13
2018-06-10T14:22:20.492Z,21.70
2018-06-10T14:24:57.016Z,22.73
2018-06-10T14:27:36.372Z,21.02
2018-06-10T14:30:15.548Z,21.19
2018-06-10T14:32:54.858Z,23.93
2018-06-10T14:35:30.527Z,24.95
2018-06-10T14:38:06.926Z,27.98
2018-06-10T14:40:42.492Z,31.98
2018-06-10T14:43:18.545Z,35.00
2018-06-10T14:45:54.591Z,33.76
2018-06-10T14:48:30.831Z,25.94
2018-06-10T14:51:11.047Z,23.38
2018-06-10T14:53:52.113Z,23.75
2018-06-10T14:56:36.869Z,22.84
2018-06-10T14:59:19.340Z,23.15
2018-06-10T15:02:04.620Z,25.93
2018-06-10T15:04:42.877Z,23.99
2018-06-10T15:07:20.401Z,22.34
2018-06-10T15:09:58.365Z,24.80
2018-06-10T15:12:35.611Z,32.65
2018-06-10T15:15:11.871Z,32.55
2018-06-10T15:17:48.063Z,29.91
2018-06-10T15:20:26.359Z,29.06
2018-06-10T15:23:04.144Z,30.54
2018-06-10T15:25:41.509Z,27.40
2018-06-10T15:28:20.191Z,26.70
2018-06-10T15:30:57.549Z,31.06
2018-06-10T15:33:35.047Z,31.53
2018-06-10T15:36:12.683Z,32.42
2018-06-10T15:38:53.887Z,38.94
2018-06-10T15:41:35.531Z,38.08
2018-06-10T15:44:13.951Z,32.22
2018-06-10T15:47:04.391Z,26.76
2018-06-10T15:49:46.125Z,26.20
2018-06-10T15:52:34.064Z,26.30
2018-06-10T15:55:16.332Z,29.87
2018-06-10T15:57:57.430Z,36.60
2018-06-10T16:00:36.748Z,38.22
2018-06-10T16:03:15.522Z,35.46
2018-06-10T16:05:53.212Z,35.60
2018-06-10T16:08:33.823Z,30.99
2018-06-10T16:11:17.556Z,29.44
2018-06-10T16:13:53.433Z,29.77
2018-06-10T16:16:31.126Z,30.58
2018-06-10T16:19:08.177Z,32.78
2018-06-10T16:21:46.173Z,31.85
2018-06-10T16:24:26.654Z,28.33
2018-06-10T16:27:06.142Z,28.31
2018-06-10T16:29:43.028Z,28.29
2018-06-10T16:32:20.950Z,28.71
2018-06-10T16:34:58.663Z,26.09
2018-06-10T16:37:36.198Z,27.13
2018-06-10T16:40:15.126Z,29.36
2018-06-10T16:43:16.191Z,30.27
2018-06-10T16:45:54.224Z,31.85
2018-06-10T16:48:32.087Z,31.65
2018-06-10T16:51:10.567Z,30.84
2018-06-10T16:53:53.774Z,31.11
2018-06-10T16:56:32.484Z,31.21
2018-06-10T16:59:11.968Z,32.50
2018-06-10T17:01:49.791Z,30.79
2018-06-10T17:04:25.996Z,32.38
2018-06-10T17:07:01.946Z,33.80
2018-06-10T17:09:40.036Z,34.44
2018-06-10T17:12:15.632Z,35.64
2018-06-10T17:14:51.718Z,35.72
2018-06-10T17:17:27.776Z,38.37
2018-06-10T17:20:04.338Z,38.08
2018-06-10T17:22:39.813Z,40.95
2018-06-10T17:25:15.950Z,41.82
2018-06-10T17:27:51.540Z,42.20
2018-06-10T17:30:28.807Z,42.67
2018-06-10T17:33:05.954Z,43.53
2018-06-10T17:35:46.149Z,44.50
2018-06-10T17:38:21.615Z,43.88
2018-06-10T17:40:57.853Z,44.26
2018-06-10T17:43:36.531Z,43.91
2018-06-10T17:46:12.891Z,43.49
2018-06-10T17:48:49.485Z,43.75
2018-06-10T17:51:29.637Z,43.39
2018-06-10T17:54:17.481Z,44.33
2018-06-10T17:57:08.275Z,44.31
2018-06-10T17:59:52.436Z,43.64
2018-06-10T18:02:41.627Z,43.28
2018-06-10T18:05:20.729Z,43.25
2018-06-10T18:07:56.857Z,43.78
2018-06-10T18:10:36.138Z,44.60
2018-06-10T18:13:15.919Z,45.83
2018-06-10T18:15:53.869Z,46.44
2018-06-10T18:18:31.915Z,46.30
2018-06-10T18:21:16.589Z,46.00
2018-06-10T18:24:30.523Z,46.46
2018-06-10T18:27:15.580Z,46.78
2018-06-10T18:29:55.236Z,47.03
2018-06-10T18:32:35.065Z,47.72
2018-06-10T18:35:12.055Z,48.01
2018-06-10T18:37:48.547Z,48.51
2018-06-10T18:40:27.662Z,48.94
2018-06-10T18:43:06.417Z,49.53
2018-06-10T18:45:48.354Z,50.21
2018-06-10T18:48:24.447Z,49.93
2018-06-10T18:51:00.835Z,50.31
2018-06-10T18:53:36.716Z,50.57
2018-06-10T18:56:12.447Z,50.89
2018-06-10T18:58:48.400Z,52.14
2018-06-10T19:01:24.852Z,51.53
2018-06-10T19:04:00.917Z,52.00
2018-06-10T19:06:37.567Z,53.00
2018-06-10T19:09:14.120Z,53.27
2018-06-10T19:11:49.762Z,52.77
2018-06-10T19:14:25.602Z,52.94
2018-06-10T19:17:02.192Z,53.09
2018-06-10T19:19:39.340Z,53.04
2018-06-10T19:22:15.447Z,53.90
2018-06-10T19:24:51.921Z,54.04
2018-06-10T19:27:28.165Z,55.67
2018-06-10T19:30:03.633Z,56.01
2018-06-10T19:32:39.101Z,56.64
2018-06-10T19:35:14.532Z,57.41
2018-06-10T19:37:50.071Z,57.47
2018-06-10T19:40:25.728Z,56.86
2018-06-10T19:43:01.827Z,56.48
2018-06-10T19:45:37.850Z,56.70
2018-06-10T19:48:14.052Z,56.76
2018-06-10T19:50:50.683Z,57.99
2018-06-10T19:53:26.178Z,57.63
2018-06-10T19:56:01.954Z,58.43
2018-06-10T19:58:38.850Z,58.85
2018-06-10T20:01:15.189Z,59.78
2018-06-10T20:03:50.989Z,60.29
2018-06-10T20:06:28.432Z,60.16
2018-06-10T20:09:04.996Z,60.45
2018-06-10T20:11:41.381Z,61.49
2018-06-10T20:14:17.620Z,60.17
2018-06-10T20:16:53.566Z,59.19
2018-06-10T20:19:30.975Z,58.15
2018-06-10T20:22:07.797Z,57.08
2018-06-10T20:24:44.462Z,56.53
2018-06-10T20:27:22.289Z,56.87
2018-06-10T20:29:58.295Z,56.90
2018-06-10T20:32:35.361Z,57.52
2018-06-10T20:35:11.654Z,56.67
2018-06-10T20:37:48.470Z,57.38
2018-06-10T20:40:24.914Z,57.22
2018-06-10T20:43:01.181Z,56.28
2018-06-10T20:45:37.577Z,57.51
2018-06-10T20:48:14.590Z,57.44
2018-06-10T20:50:50.283Z,57.71
2018-06-10T20:53:27.736Z,57.60
2018-06-10T20:56:04.732Z,56.79
2018-06-10T20:58:40.523Z,57.69
2018-06-10T21:01:17.595Z,58.13
2018-06-10T21:03:54.533Z,57.65
2018-06-10T21:06:30.408Z,58.33
2018-06-10T21:09:08.221Z,57.84
2018-06-10T21:11:44.989Z,58.54
2018-06-10T21:14:22.259Z,59.67
2018-06-10T21:16:58.455Z,60.55
2018-06-10T21:19:34.456Z,61.23
2018-06-10T21:22:11.019Z,62.88
2018-06-10T21:24:46.851Z,62.78
2018-06-10T21:27:23.916Z,63.01
2018-06-10T21:30:00.208Z,63.90
2018-06-10T21:32:36.038Z,64.22
2018-06-10T21:35:11.718Z,64.23
2018-06-10T21:37:47.735Z,63.81
2018-06-10T21:40:23.645Z,65.29
2018-06-10T21:42:59.091Z,66.03
2018-06-10T21:45:34.562Z,66.31
2018-06-10T21:48:10.355Z,66.26
2018-06-10T21:50:46.106Z,65.81
2018-06-10T21:53:21.584Z,66.05
2018-06-10T21:55:57.082Z,67.36
2018-06-10T21:58:32.470Z,67.87
2018-06-10T22:01:08.767Z,68.14
2018-06-10T22:03:44.379Z,68.73
2018-06-10T22:06:20.503Z,69.19
2018-06-10T22:08:56.139Z,69.87
2018-06-10T22:11:31.783Z,70.05
2018-06-10T22:14:07.791Z,69.09
2018-06-10T22:16:43.597Z,69.95
2018-06-10T22:19:19.466Z,70.45
2018-06-10T22:21:55.287Z,70.38
2018-06-10T22:24:30.858Z,70.57
2018-06-10T22:27:06.603Z,70.63
2018-06-10T22:29:42.386Z,71.23
2018-06-10T22:32:18.577Z,72.16
2018-06-10T22:34:54.206Z,72.06
2018-06-10T22:37:30.749Z,72.87
2018-06-10T22:40:06.239Z,72.79
2018-06-10T22:42:41.669Z,73.39
2018-06-10T22:45:17.741Z,73.58
2018-06-10T22:47:53.431Z,72.56
2018-06-10T22:50:29.503Z,73.72
2018-06-10T22:55:17.541Z,73.36
2018-06-10T22:57:53.214Z,73.39
2018-06-10T23:00:29.169Z,73.97
2018-06-10T23:03:04.964Z,74.54
2018-06-10T23:05:40.467Z,74.57
2018-06-10T23:08:17.801Z,75.32
2018-06-10T23:10:53.558Z,75.21
2018-06-10T23:13:29.455Z,76.36
2018-06-10T23:16:05.278Z,77.32
2018-06-10T23:18:40.527Z,77.26
2018-06-10T23:21:16.196Z,77.64
2018-06-10T23:23:51.696Z,78.38
2018-06-10T23:26:27.372Z,78.63
2018-06-10T23:29:03.124Z,77.84
2018-06-10T23:31:38.968Z,77.69
2018-06-10T23:34:14.507Z,78.28
2018-06-10T23:36:50.042Z,78.44
2018-06-10T23:39:25.837Z,79.19
2018-06-10T23:42:01.972Z,80.23
2018-06-10T23:44:37.612Z,80.05
2018-06-10T23:47:13.264Z,80.00
2018-06-10T23:49:48.970Z,80.58
2018-06-10T23:52:24.816Z,80.03
2018-06-10T23:55:00.472Z,80.76
2018-06-10T23:57:36.181Z,80.93
